createdAt,value
2022-12-29T00:03:07.252Z,11.1
2022-12-29T00:09:01.345Z,11.3
2022-12-29T00:16:26.214Z,11.2
2022-12-29T00:21:30.833Z,11.2
2022-12-29T00:27:41.546Z,11.2
2022-12-29T00:33:52.285Z,11.5
2022-12-29T00:38:56.912Z,11.4
2022-12-29T00:46:21.806Z,11.3
2022-12-29T00:53:46.510Z,11.2
2022-12-29T00:59:57.282Z,11.2
2022-12-29T01:05:01.926Z,11.4
2022-12-29T01:12:18.509Z,11.4
2022-12-29T01:18:37.374Z,11.4
2022-12-29T01:24:48.217Z,11.5
2022-12-29T01:30:17.335Z,11.5
2022-12-29T01:37:42.113Z,11.6
2022-12-29T01:42:46.897Z,11.5
2022-12-29T01:48:57.531Z,11.5
2022-12-29T01:55:08.160Z,11.6
2022-12-29T02:01:27.219Z,11.6
2022-12-29T02:08:51.835Z,11.8
2022-12-29T02:15:02.485Z,11.8
2022-12-29T02:21:13.227Z,11.8
2022-12-29T02:28:37.967Z,11.9
2022-12-29T02:34:56.848Z,11.6
2022-12-29T02:41:07.530Z,11.6
2022-12-29T02:48:32.297Z,11.6
2022-12-29T02:55:57.074Z,11.9
2022-12-29T03:03:21.941Z,11.5
2022-12-29T03:10:54.891Z,11.7
2022-12-29T03:18:19.695Z,11.7
2022-12-29T03:25:44.545Z,11.6
2022-12-29T03:33:09.321Z,11.6
2022-12-29T03:39:28.155Z,11.6
2022-12-29T03:45:38.860Z,11.8
2022-12-29T03:51:51.912Z,11.8
2022-12-29T03:57:02.403Z,11.9
2022-12-29T04:03:04.953Z,11.7
2022-12-29T04:09:15.549Z,11.6
2022-12-29T04:15:26.316Z,11.6
2022-12-29T04:20:30.945Z,11.7
2022-12-29T04:27:55.739Z,11.7
2022-12-29T04:35:20.525Z,11.5
2022-12-29T04:41:31.327Z,11.5
2022-12-29T04:46:36.032Z,11.6
2022-12-29T04:52:46.591Z,11.5
2022-12-29T04:58:57.276Z,11.4
2022-12-29T05:05:07.963Z,11.6
2022-12-29T05:11:18.560Z,11.6
2022-12-29T05:17:29.257Z,11.5
2022-12-29T05:23:39.927Z,11.4
2022-12-29T05:29:42.378Z,11.5
2022-12-29T05:35:53.099Z,11.5
2022-12-29T05:43:17.845Z,11.5
2022-12-29T05:49:36.710Z,11.4
2022-12-29T05:57:01.584Z,11.4
2022-12-29T06:04:26.295Z,11.4
2022-12-29T06:13:05.271Z,11.6
2022-12-29T06:19:15.913Z,11.6
2022-12-29T06:25:26.723Z,11.7
2022-12-29T06:30:39.524Z,10.9
2022-12-29T06:36:50.214Z,10.8
2022-12-29T06:41:54.893Z,10.8
2022-12-29T06:48:05.589Z,10.8
2022-12-29T06:54:16.216Z,10.6
2022-12-29T07:00:26.897Z,10.6
2022-12-29T07:06:37.571Z,10.7
2022-12-29T07:12:48.189Z,10.6
2022-12-29T07:20:26.522Z,10.8
2022-12-29T07:26:36.258Z,10.8
2022-12-29T07:34:04.847Z,10.9
2022-12-29T07:40:15.529Z,11
2022-12-29T07:45:20.275Z,11.1
2022-12-29T07:51:30.892Z,11
2022-12-29T07:57:41.556Z,10.8
2022-12-29T08:03:57.110Z,10.8
2022-12-29T08:10:02.912Z,10.7
2022-12-29T08:16:13.691Z,10.9
2022-12-29T08:23:38.403Z,10.9
2022-12-29T08:29:49.091Z,10.8
2022-12-29T08:35:59.792Z,10.7
2022-12-29T08:43:18.686Z,10.7
2022-12-29T08:50:41.123Z,10.9
2022-12-29T08:57:24.551Z,10.8
2022-12-29T09:02:29.601Z,10.8
2022-12-29T09:08:39.943Z,10.8
2022-12-29T09:14:50.595Z,10.9
2022-12-29T09:21:09.488Z,11
2022-12-29T09:28:34.247Z,10.6
2022-12-29T09:35:59.069Z,10.8
2022-12-29T09:43:07.504Z,10.8
2022-12-29T09:48:12.227Z,10.9
2022-12-29T09:54:22.850Z,10.8
2022-12-29T10:00:33.613Z,11
2022-12-29T10:07:19.443Z,11.3
2022-12-29T10:12:54.877Z,11
2022-12-29T10:19:05.554Z,11
2022-12-29T10:25:16.220Z,11.1
2022-12-29T10:32:40.985Z,11.1
2022-12-29T10:38:51.696Z,11.1
2022-12-29T10:44:54.158Z,11.1
2022-12-29T10:51:13.020Z,11
2022-12-29T10:58:37.806Z,11.1
2022-12-29T11:06:02.591Z,11.2
2022-12-29T11:13:39.316Z,11.1
2022-12-29T11:21:00.590Z,11.2
2022-12-29T11:26:05.115Z,11.2
2022-12-29T11:31:50.853Z,11.1
2022-12-29T11:39:15.648Z,11.3
2022-12-29T11:46:40.463Z,11.3
2022-12-29T11:54:05.210Z,11.8
2022-12-29T12:01:38.317Z,11.6
2022-12-29T12:10:17.145Z,11.5
2022-12-29T12:17:25.562Z,11.1
2022-12-29T12:24:50.348Z,11.4
2022-12-29T12:29:55.067Z,11.4
2022-12-29T12:36:06.455Z,11.4
2022-12-29T12:43:30.534Z,11.1
2022-12-29T12:51:03.540Z,11
2022-12-29T12:57:14.185Z,11
2022-12-29T13:03:25.015Z,10.8
2022-12-29T13:08:29.611Z,11
2022-12-29T13:15:54.449Z,11
2022-12-29T13:23:19.172Z,10.9
2022-12-29T13:32:55.876Z,10.7
2022-12-29T13:38:00.599Z,10.8
2022-12-29T13:44:11.220Z,10.7
2022-12-29T13:51:36.078Z,10.7
2022-12-29T13:57:54.918Z,10.9
2022-12-29T14:04:05.624Z,11
2022-12-29T14:10:16.341Z,11.2
2022-12-29T14:21:23.449Z,10.9
2022-12-29T14:28:48.250Z,10.9
2022-12-29T14:34:58.875Z,11.1
2022-12-29T14:43:21.438Z,10.9
2022-12-29T14:49:40.326Z,10.7
2022-12-29T14:55:51.051Z,10.5
2022-12-29T15:02:01.729Z,10.7
2022-12-29T15:08:12.482Z,10.7
2022-12-29T15:14:22.963Z,10.7
2022-12-29T15:20:33.625Z,10.7
2022-12-29T15:26:44.303Z,10.8
2022-12-29T15:32:54.953Z,10.9
2022-12-29T15:40:11.599Z,10.5
2022-12-29T15:46:22.281Z,10.2
2022-12-29T15:52:32.931Z,9.9
2022-12-29T15:58:43.571Z,10
2022-12-29T16:05:16.556Z,10.1
2022-12-29T16:11:04.898Z,9.8
2022-12-29T16:17:15.568Z,9.8
2022-12-29T16:23:26.277Z,9.8
2022-12-29T16:28:39.157Z,9.6
2022-12-29T16:34:49.798Z,9.7
2022-12-29T16:40:52.302Z,9.5
2022-12-29T16:47:02.961Z,9.2
2022-12-29T16:53:13.615Z,8.9
2022-12-29T16:59:24.326Z,8.8
2022-12-29T17:05:34.950Z,8.5
2022-12-29T17:11:45.605Z,8.7
2022-12-29T17:17:56.308Z,8.7
2022-12-29T17:24:06.952Z,8.7
2022-12-29T17:30:17.606Z,8.7
2022-12-29T17:36:28.355Z,8.6
2022-12-29T17:42:30.735Z,8.7
2022-12-29T17:48:41.392Z,8.8
2022-12-29T17:53:46.219Z,8.6
2022-12-29T17:59:56.941Z,8.5
2022-12-29T18:06:07.479Z,8.6
2022-12-29T18:12:18.170Z,8.5
2022-12-29T18:18:28.824Z,8.7
2022-12-29T18:24:39.717Z,8.4
2022-12-29T18:30:50.225Z,8.4
2022-12-29T18:37:00.790Z,8.4
2022-12-29T18:43:03.281Z,8.5
2022-12-29T18:49:13.943Z,8.5
2022-12-29T18:55:40.973Z,8.5
2022-12-29T19:01:51.683Z,8.4
2022-12-29T19:08:02.348Z,8.9
2022-12-29T19:14:12.991Z,9
2022-12-29T19:20:23.651Z,8.9
2022-12-29T19:26:34.363Z,9
2022-12-29T19:32:45.020Z,8.8
2022-12-29T19:40:01.602Z,9
2022-12-29T19:46:12.341Z,9.1
2022-12-29T19:52:22.894Z,9.2
2022-12-29T19:58:33.570Z,9.1
2022-12-29T20:04:44.294Z,9
2022-12-29T20:10:54.902Z,9.1
2022-12-29T20:17:12.119Z,9.2
2022-12-29T20:23:16.301Z,9
2022-12-29T20:29:26.923Z,9
2022-12-29T20:35:37.626Z,8.6
2022-12-29T20:41:48.264Z,8.6
2022-12-29T20:47:58.894Z,8.6
2022-12-29T20:54:01.377Z,8.4
2022-12-29T21:00:16.084Z,8.4
2022-12-29T21:06:22.719Z,8.4
2022-12-29T21:12:33.371Z,8.4
2022-12-29T21:18:44.064Z,8.3
2022-12-29T21:24:54.732Z,8.3
2022-12-29T21:31:05.406Z,7.8
2022-12-29T21:37:21.633Z,7.6
2022-12-29T21:43:26.701Z,7.7
2022-12-29T21:49:37.355Z,7.6
2022-12-29T21:55:39.851Z,7.6
2022-12-29T22:00:44.573Z,7.6
2022-12-29T22:06:55.238Z,7.7
2022-12-29T22:13:05.917Z,7.6
2022-12-29T22:19:16.589Z,7.4
2022-12-29T22:25:27.217Z,7.3
2022-12-29T22:31:38.004Z,7.2
2022-12-29T22:37:48.540Z,7.3
2022-12-29T22:43:59.265Z,7
2022-12-29T22:50:09.919Z,7.1
2022-12-29T22:56:12.372Z,6.9
2022-12-29T23:02:23.284Z,7
2022-12-29T23:08:33.780Z,7.1
2022-12-29T23:14:44.343Z,7
2022-12-29T23:20:55.020Z,7
2022-12-29T23:27:05.714Z,6.8
2022-12-29T23:33:16.350Z,6.9
2022-12-29T23:39:27.001Z,7
2022-12-29T23:45:37.725Z,6.9
2022-12-29T23:51:48.363Z,6.9
2022-12-29T23:57:50.805Z,6.9
